Hansen Hills, California
Current Conditions -  °F | °C
As of 1:51 PM on Friday 28 Nov 2014 (Local Time) from KVNY Reporting Station
Clear Clear  
Wind Chill: 82°   Ceiling: Unl
Heat Index: 82°   Visibility: 10mi
Dew Point: 24°   Wind: 9mph
Humidity: 12%   Direction: 160°SSE
Pressure: 29.9"   Gusts: NA
Location:  34.2561°N, 118.42°W
Report Text: KVNY 282151Z 16008KT 10SM CLR 28/M04 A2990 RMK AO2 SLP119 T02781044
Loading
Personal Weather Stations






























Interactive Weather Map New forecast layout! Learn more

10-Day Weather Forecast

Advertisements
Track Severe Weather on mobile